createdAt,value
2018-08-18T00:00:30.352Z,14.37
2018-08-18T00:03:07.213Z,13.98
2018-08-18T00:05:46.004Z,13.77
2018-08-18T00:08:26.908Z,13.63
2018-08-18T00:11:04.171Z,13.84
2018-08-18T00:13:59.499Z,13.96
2018-08-18T00:16:35.325Z,14.26
2018-08-18T00:19:11.271Z,14.51
2018-08-18T00:21:47.018Z,14.67
2018-08-18T00:24:26.251Z,14.58
2018-08-18T00:27:02.601Z,14.48
2018-08-18T00:29:39.239Z,14.42
2018-08-18T00:32:15.072Z,14.54
2018-08-18T00:34:54.645Z,14.67
2018-08-18T00:37:30.425Z,13.74
2018-08-18T00:40:07.798Z,13.53
2018-08-18T00:42:43.540Z,13.25
2018-08-18T00:45:20.590Z,13.40
2018-08-18T00:47:56.343Z,13.50
2018-08-18T00:50:42.637Z,13.62
2018-08-18T00:53:18.494Z,13.59
2018-08-18T00:55:54.417Z,13.16
2018-08-18T00:58:30.285Z,13.34
2018-08-18T01:01:06.642Z,13.43
2018-08-18T01:03:47.224Z,13.49
2018-08-18T01:06:26.281Z,13.73
2018-08-18T01:09:03.565Z,13.74
2018-08-18T01:11:40.082Z,13.59
2018-08-18T01:14:22.013Z,13.40
2018-08-18T01:16:58.017Z,13.29
2018-08-18T01:19:33.776Z,13.63
2018-08-18T01:22:11.698Z,13.92
2018-08-18T01:24:47.694Z,14.16
2018-08-18T01:27:23.644Z,14.22
2018-08-18T01:30:04.356Z,14.28
2018-08-18T01:32:40.513Z,14.42
2018-08-18T01:35:16.361Z,14.52
2018-08-18T01:37:52.180Z,14.44
2018-08-18T01:40:28.013Z,14.03
2018-08-18T01:43:05.861Z,13.60
2018-08-18T01:45:41.933Z,13.42
2018-08-18T01:48:17.846Z,13.24
2018-08-18T01:50:53.810Z,13.56
2018-08-18T01:53:29.638Z,13.77
2018-08-18T01:56:05.395Z,13.98
2018-08-18T01:58:41.379Z,14.03
2018-08-18T02:01:17.087Z,13.70
2018-08-18T02:03:52.929Z,13.14
2018-08-18T02:06:28.816Z,12.64
2018-08-18T02:09:05.062Z,12.58
2018-08-18T02:11:41.612Z,12.50
2018-08-18T02:14:21.195Z,12.56
2018-08-18T02:17:08.401Z,12.74
2018-08-18T02:19:44.280Z,12.69
2018-08-18T02:22:20.000Z,12.81
2018-08-18T02:24:56.141Z,12.72
2018-08-18T02:27:31.744Z,12.26
2018-08-18T02:30:15.825Z,12.18
2018-08-18T02:32:51.588Z,12.25
2018-08-18T02:35:27.464Z,12.27
2018-08-18T02:38:03.869Z,12.65
2018-08-18T02:40:39.516Z,13.01
2018-08-18T02:43:21.181Z,13.26
2018-08-18T02:45:57.891Z,13.40
2018-08-18T02:48:33.854Z,13.58
2018-08-18T02:51:09.530Z,13.77
2018-08-18T02:53:45.531Z,13.79
2018-08-18T02:56:22.314Z,13.94
2018-08-18T02:59:02.774Z,13.97
2018-08-18T03:01:41.206Z,13.90
2018-08-18T03:04:16.951Z,13.56
2018-08-18T03:06:52.813Z,13.48
2018-08-18T03:09:28.564Z,13.09
2018-08-18T03:12:04.694Z,13.01
2018-08-18T03:14:41.074Z,12.95
2018-08-18T03:17:16.982Z,12.92
2018-08-18T03:19:53.370Z,12.98
2018-08-18T03:22:34.205Z,13.12
2018-08-18T03:25:10.171Z,13.20
2018-08-18T03:27:45.845Z,13.09
2018-08-18T03:30:21.577Z,12.91
2018-08-18T03:32:57.469Z,12.95
2018-08-18T03:35:33.667Z,13.07
2018-08-18T03:38:09.345Z,13.24
2018-08-18T03:40:45.255Z,13.20
2018-08-18T03:43:20.893Z,13.38
2018-08-18T03:45:56.773Z,13.48
2018-08-18T03:48:33.108Z,13.57
2018-08-18T03:51:08.966Z,13.33
2018-08-18T03:53:44.740Z,13.14
2018-08-18T03:56:20.506Z,12.76
2018-08-18T03:58:57.512Z,12.61
2018-08-18T04:01:43.908Z,12.41
2018-08-18T04:04:20.707Z,12.18
2018-08-18T04:06:57.581Z,11.96
2018-08-18T04:09:34.572Z,11.87
2018-08-18T04:12:11.234Z,11.90
2018-08-18T04:14:47.258Z,11.89
2018-08-18T04:17:29.476Z,12.01
2018-08-18T04:20:06.788Z,11.98
2018-08-18T04:22:43.814Z,12.30
2018-08-18T04:25:19.530Z,12.51
2018-08-18T04:27:55.626Z,12.77
2018-08-18T04:30:31.976Z,13.21
2018-08-18T04:33:07.898Z,13.35
2018-08-18T04:35:47.710Z,13.52
2018-08-18T04:38:23.852Z,13.82
2018-08-18T04:40:59.614Z,14.21
2018-08-18T04:43:36.749Z,14.46
2018-08-18T04:46:12.457Z,14.36
2018-08-18T04:48:48.304Z,14.48
2018-08-18T04:51:24.071Z,14.42
2018-08-18T04:54:00.272Z,14.58
2018-08-18T04:56:35.993Z,14.79
2018-08-18T04:59:11.856Z,15.08
2018-08-18T05:01:47.901Z,15.41
2018-08-18T05:04:23.897Z,15.77
2018-08-18T05:06:59.760Z,16.04
2018-08-18T05:09:35.546Z,16.38
2018-08-18T05:12:11.427Z,16.63
2018-08-18T05:14:47.455Z,16.49
2018-08-18T05:17:23.133Z,16.61
2018-08-18T05:20:09.754Z,16.92
2018-08-18T05:22:45.642Z,17.21
2018-08-18T05:25:29.253Z,17.38
2018-08-18T05:28:05.009Z,17.63
2018-08-18T05:30:40.797Z,17.91
2018-08-18T05:33:16.570Z,18.13
2018-08-18T05:35:52.290Z,18.39
2018-08-18T05:38:28.003Z,18.44
2018-08-18T05:41:05.015Z,18.53
2018-08-18T05:43:40.994Z,18.56
2018-08-18T05:46:17.141Z,18.77
2018-08-18T05:48:53.863Z,18.95
2018-08-18T05:51:32.121Z,18.83
2018-08-18T05:54:09.570Z,19.01
2018-08-18T05:56:46.614Z,18.70
2018-08-18T05:59:22.627Z,19.05
2018-08-18T06:01:58.628Z,19.05
2018-08-18T06:04:34.438Z,19.16
2018-08-18T06:07:10.277Z,19.36
2018-08-18T06:09:46.100Z,19.13
2018-08-18T06:12:22.626Z,19.26
2018-08-18T06:14:58.363Z,19.75
2018-08-18T06:17:34.343Z,20.38
2018-08-18T06:20:10.249Z,20.70
2018-08-18T06:22:46.110Z,21.21
2018-08-18T06:25:22.679Z,21.02
2018-08-18T06:27:58.537Z,20.98
2018-08-18T06:30:34.380Z,21.05
2018-08-18T06:33:05.191Z,20.86
2018-08-18T06:35:39.090Z,21.11
2018-08-18T06:38:10.772Z,20.98
2018-08-18T06:40:44.500Z,21.45
2018-08-18T06:43:15.341Z,21.92
2018-08-18T06:45:46.157Z,22.37
2018-08-18T06:48:21.202Z,22.73
2018-08-18T06:50:52.449Z,22.35
2018-08-18T06:53:24.064Z,22.56
2018-08-18T06:55:55.165Z,22.77
2018-08-18T06:58:26.033Z,22.99
2018-08-18T07:00:56.972Z,23.20
2018-08-18T07:03:35.148Z,22.51
2018-08-18T07:06:07.145Z,22.78
2018-08-18T07:08:43.144Z,23.09
2018-08-18T07:11:14.083Z,23.29
2018-08-18T07:13:45.837Z,23.49
2018-08-18T07:16:16.699Z,23.74
2018-08-18T07:18:47.477Z,23.98
2018-08-18T07:21:18.346Z,24.23
2018-08-18T07:23:49.253Z,23.92
2018-08-18T07:26:20.075Z,24.14
2018-08-18T07:28:51.430Z,24.25
2018-08-18T07:31:22.375Z,24.72
2018-08-18T07:33:53.658Z,24.07
2018-08-18T07:36:24.497Z,24.32
2018-08-18T07:38:55.309Z,24.88
2018-08-18T07:41:27.201Z,24.91
2018-08-18T07:44:00.446Z,24.91
2018-08-18T07:46:31.589Z,24.95
2018-08-18T07:49:04.490Z,25.00
2018-08-18T07:51:35.689Z,25.62
2018-08-18T07:54:06.490Z,25.62
2018-08-18T07:56:37.316Z,26.01
2018-08-18T07:59:08.318Z,26.22
2018-08-18T08:01:39.146Z,26.30
2018-08-18T08:04:09.947Z,26.48
2018-08-18T08:06:40.826Z,26.99
2018-08-18T08:09:12.021Z,27.29
2018-08-18T08:11:42.863Z,27.34
2018-08-18T08:14:13.633Z,27.14
2018-08-18T08:16:44.453Z,27.42
2018-08-18T08:19:15.255Z,27.70
2018-08-18T08:21:46.069Z,27.71
2018-08-18T08:24:17.041Z,27.47
2018-08-18T08:26:47.849Z,27.66
2018-08-18T08:29:20.285Z,26.84
2018-08-18T08:31:51.082Z,26.57
2018-08-18T08:34:22.097Z,26.11
2018-08-18T08:36:53.021Z,26.09
2018-08-18T08:39:24.008Z,26.50
2018-08-18T08:41:54.816Z,26.67
2018-08-18T08:44:25.632Z,26.85
2018-08-18T08:47:01.727Z,26.83
2018-08-18T08:49:32.522Z,26.81
2018-08-18T08:52:03.485Z,26.82
2018-08-18T08:54:46.074Z,26.97
2018-08-18T08:57:17.057Z,27.05
2018-08-18T08:59:47.839Z,26.79
2018-08-18T09:02:19.054Z,27.48
2018-08-18T09:04:49.833Z,28.05
2018-08-18T09:07:21.090Z,28.78
2018-08-18T09:09:51.896Z,28.42
2018-08-18T09:12:22.781Z,28.53
2018-08-18T09:14:53.549Z,28.27
2018-08-18T09:17:24.922Z,28.89
2018-08-18T09:19:55.696Z,29.35
2018-08-18T09:22:27.840Z,29.75
2018-08-18T09:25:02.670Z,29.75
2018-08-18T09:27:35.048Z,29.87
2018-08-18T09:30:06.133Z,30.24
2018-08-18T09:32:36.957Z,30.23
2018-08-18T09:35:07.800Z,30.27
2018-08-18T09:37:42.140Z,30.81
2018-08-18T09:40:12.911Z,30.91
2018-08-18T09:42:43.865Z,30.24
2018-08-18T09:45:14.710Z,30.26
2018-08-18T09:47:45.589Z,30.77
2018-08-18T09:50:16.583Z,30.36
2018-08-18T09:52:47.478Z,29.52
2018-08-18T09:55:18.385Z,29.03
2018-08-18T09:57:49.245Z,28.90
2018-08-18T10:00:24.094Z,28.74
2018-08-18T10:02:54.903Z,28.43
2018-08-18T10:05:25.680Z,27.82
2018-08-18T10:07:56.485Z,28.81
2018-08-18T10:10:27.331Z,29.77
2018-08-18T10:13:01.554Z,30.29
2018-08-18T10:15:32.342Z,30.43
2018-08-18T10:18:04.290Z,31.07
2018-08-18T10:20:51.733Z,30.94
2018-08-18T10:23:22.667Z,31.55
2018-08-18T10:25:53.485Z,31.68
2018-08-18T10:28:24.354Z,31.86
2018-08-18T10:30:55.143Z,31.90
2018-08-18T10:33:26.082Z,32.04
2018-08-18T10:35:56.978Z,32.07
2018-08-18T10:38:27.781Z,30.40
2018-08-18T10:40:59.073Z,29.79
2018-08-18T10:43:30.311Z,29.63
2018-08-18T10:46:01.133Z,29.66
2018-08-18T10:48:32.061Z,30.35
2018-08-18T10:51:28.766Z,30.75
2018-08-18T10:54:02.078Z,31.64
2018-08-18T10:56:32.932Z,31.53
2018-08-18T10:59:16.661Z,31.66
2018-08-18T11:02:08.471Z,30.57
2018-08-18T11:04:39.282Z,31.08
2018-08-18T11:07:10.095Z,31.20
2018-08-18T11:09:40.925Z,30.96
2018-08-18T11:12:12.097Z,29.94
2018-08-18T11:14:46.627Z,29.52
2018-08-18T11:17:17.492Z,28.92
2018-08-18T11:19:48.442Z,28.93
2018-08-18T11:23:32.171Z,28.77
2018-08-18T11:26:03.038Z,29.37
2018-08-18T11:28:34.211Z,29.58
2018-08-18T11:31:05.375Z,29.24
2018-08-18T11:33:41.574Z,29.56
2018-08-18T11:36:13.674Z,30.34
2018-08-18T11:38:44.481Z,30.96
2018-08-18T11:41:15.332Z,31.35
2018-08-18T11:43:48.333Z,31.08
2018-08-18T11:46:19.172Z,31.10
2018-08-18T11:48:49.948Z,31.10
2018-08-18T11:51:21.752Z,30.79
2018-08-18T11:54:00.628Z,31.44
2018-08-18T11:56:33.150Z,31.91
2018-08-18T11:59:08.050Z,32.32
2018-08-18T12:01:40.251Z,32.54
2018-08-18T12:04:11.105Z,32.00
2018-08-18T12:06:58.602Z,31.27
2018-08-18T12:09:29.577Z,31.15
2018-08-18T12:12:01.082Z,30.84
2018-08-18T12:14:32.037Z,30.54
2018-08-18T12:17:03.071Z,30.67
2018-08-18T12:19:33.909Z,30.44
2018-08-18T12:22:04.849Z,30.95
2018-08-18T12:24:35.725Z,31.04
2018-08-18T12:27:09.706Z,30.31
2018-08-18T12:29:40.543Z,30.96
2018-08-18T12:32:18.494Z,31.47
2018-08-18T12:34:49.276Z,32.11
2018-08-18T12:37:25.508Z,32.73
2018-08-18T12:39:58.324Z,33.05
2018-08-18T12:42:29.625Z,33.37
2018-08-18T12:45:00.404Z,33.48
2018-08-18T12:47:31.438Z,32.73
2018-08-18T12:50:03.799Z,32.22
2018-08-18T12:52:44.469Z,32.63
2018-08-18T12:55:15.254Z,32.88
2018-08-18T12:57:47.486Z,31.41
2018-08-18T13:00:18.885Z,30.60
2018-08-18T13:02:53.608Z,30.43
2018-08-18T13:05:26.883Z,30.47
2018-08-18T13:08:00.950Z,31.19
2018-08-18T13:10:34.512Z,32.04
2018-08-18T13:13:09.041Z,32.56
2018-08-18T13:15:40.823Z,32.17
2018-08-18T13:18:11.648Z,32.59
2018-08-18T13:20:42.467Z,31.38
2018-08-18T13:23:13.570Z,30.49
2018-08-18T13:25:46.016Z,30.36
2018-08-18T13:28:17.462Z,30.22
2018-08-18T13:30:48.384Z,30.78
2018-08-18T13:33:19.345Z,31.42
2018-08-18T13:35:50.952Z,32.14
2018-08-18T13:38:30.454Z,32.71
2018-08-18T13:41:01.255Z,32.14
2018-08-18T13:43:46.508Z,32.13
2018-08-18T13:46:18.565Z,32.71
2018-08-18T13:48:54.659Z,33.14
2018-08-18T13:51:25.406Z,32.62
2018-08-18T13:53:56.247Z,32.59
2018-08-18T13:56:28.102Z,33.44
2018-08-18T13:58:59.106Z,32.93
2018-08-18T14:01:37.954Z,33.35
2018-08-18T14:04:16.013Z,34.27
2018-08-18T14:06:54.586Z,34.17
2018-08-18T14:09:25.439Z,34.98
2018-08-18T14:12:02.505Z,35.01
2018-08-18T14:14:33.398Z,33.90
2018-08-18T14:17:04.214Z,32.34
2018-08-18T14:19:35.086Z,31.22
2018-08-18T14:22:08.365Z,31.15
2018-08-18T14:24:45.487Z,30.93
2018-08-18T14:27:20.367Z,33.01
2018-08-18T14:29:56.958Z,34.68
2018-08-18T14:32:27.821Z,35.71
2018-08-18T14:35:07.723Z,36.17
2018-08-18T14:37:41.347Z,36.91
2018-08-18T14:40:15.860Z,36.99
2018-08-18T14:42:48.002Z,35.12
2018-08-18T14:45:20.591Z,33.85
2018-08-18T14:47:51.810Z,34.16
2018-08-18T14:50:25.276Z,35.01
2018-08-18T14:52:56.069Z,35.36
2018-08-18T14:55:26.952Z,35.77
2018-08-18T14:58:05.750Z,34.70
2018-08-18T15:00:36.654Z,33.88
2018-08-18T15:03:07.907Z,32.71
2018-08-18T15:05:38.774Z,32.62
2018-08-18T15:08:09.962Z,32.91
2018-08-18T15:10:42.312Z,33.45
2018-08-18T15:13:13.692Z,33.05
2018-08-18T15:15:44.910Z,31.98
2018-08-18T15:18:17.038Z,31.24
2018-08-18T15:20:47.948Z,30.29
2018-08-18T15:23:19.169Z,29.95
2018-08-18T15:25:58.544Z,29.77
2018-08-18T15:28:29.325Z,29.60
2018-08-18T15:31:00.562Z,29.54
2018-08-18T15:33:31.589Z,29.46
2018-08-18T15:36:03.448Z,29.02
2018-08-18T15:38:44.213Z,28.92
2018-08-18T15:41:15.185Z,28.71
2018-08-18T15:43:45.970Z,28.55
2018-08-18T15:46:17.733Z,28.49
2018-08-18T15:48:48.493Z,28.50
2018-08-18T15:51:19.379Z,28.47
2018-08-18T15:53:55.505Z,28.44
2018-08-18T15:56:27.405Z,28.25
2018-08-18T15:59:04.018Z,28.11
2018-08-18T16:01:35.889Z,27.56
2018-08-18T16:04:07.151Z,27.50
2018-08-18T16:06:37.991Z,27.48
2018-08-18T16:09:09.776Z,27.28
2018-08-18T16:11:40.602Z,27.32
2018-08-18T16:14:11.357Z,27.18
2018-08-18T16:16:55.845Z,27.04
2018-08-18T16:19:26.705Z,26.93
2018-08-18T16:21:57.576Z,26.78
2018-08-18T16:24:39.608Z,26.69
2018-08-18T16:27:10.442Z,26.41
2018-08-18T16:29:41.598Z,26.33
2018-08-18T16:32:21.213Z,26.22
2018-08-18T16:35:01.453Z,26.16
2018-08-18T16:37:34.760Z,26.09
2018-08-18T16:40:05.688Z,25.97
2018-08-18T16:42:36.517Z,25.92
2018-08-18T16:45:07.475Z,25.66
2018-08-18T16:47:43.320Z,25.44
2018-08-18T16:50:14.133Z,25.47
2018-08-18T16:52:44.979Z,25.30
2018-08-18T16:55:16.040Z,25.37
2018-08-18T16:57:46.906Z,25.34
2018-08-18T17:00:17.761Z,25.30
2018-08-18T17:02:48.910Z,25.22
2018-08-18T17:05:19.750Z,25.13
2018-08-18T17:07:50.597Z,25.12
2018-08-18T17:10:21.525Z,25.04
2018-08-18T17:12:52.392Z,24.90
2018-08-18T17:15:23.205Z,24.73
2018-08-18T17:17:54.095Z,24.58
2018-08-18T17:20:24.889Z,24.38
2018-08-18T17:22:55.685Z,24.13
2018-08-18T17:25:28.660Z,23.97
2018-08-18T17:27:59.457Z,23.95
2018-08-18T17:30:33.164Z,23.77
2018-08-18T17:33:04.072Z,23.63
2018-08-18T17:35:34.859Z,23.24
2018-08-18T17:38:05.843Z,23.24
2018-08-18T17:40:36.653Z,23.20
2018-08-18T17:43:07.491Z,23.11
2018-08-18T17:45:45.568Z,22.99
2018-08-18T17:48:16.457Z,22.97
2018-08-18T17:50:47.310Z,23.19
2018-08-18T17:53:18.122Z,23.16
2018-08-18T17:56:00.222Z,23.02
2018-08-18T17:58:31.219Z,23.03
2018-08-18T18:01:02.478Z,23.12
2018-08-18T18:03:33.552Z,23.16
2018-08-18T18:06:04.460Z,23.14
2018-08-18T18:08:35.322Z,23.01
2018-08-18T18:11:06.217Z,22.89
2018-08-18T18:13:37.025Z,22.48
2018-08-18T18:16:21.539Z,22.25
2018-08-18T18:18:52.366Z,22.39
2018-08-18T18:21:23.133Z,22.13
2018-08-18T18:23:53.999Z,22.17
2018-08-18T18:26:24.812Z,22.20
2018-08-18T18:28:55.884Z,22.14
2018-08-18T18:31:26.678Z,22.17
2018-08-18T18:34:02.610Z,22.08
2018-08-18T18:36:34.502Z,21.95
2018-08-18T18:39:06.804Z,21.95
2018-08-18T18:41:37.647Z,21.97
2018-08-18T18:44:08.587Z,22.00
2018-08-18T18:46:39.373Z,22.42
2018-08-18T18:49:24.008Z,22.52
2018-08-18T18:51:54.811Z,22.27
2018-08-18T18:54:25.802Z,21.68
2018-08-18T18:56:56.851Z,21.39
2018-08-18T18:59:27.691Z,21.28
2018-08-18T19:01:58.506Z,21.42
2018-08-18T19:04:29.364Z,21.50
2018-08-18T19:07:02.901Z,21.55
2018-08-18T19:09:33.834Z,21.84
2018-08-18T19:12:04.728Z,21.75
2018-08-18T19:14:35.561Z,21.87
2018-08-18T19:17:06.406Z,21.85
2018-08-18T19:19:37.224Z,21.84
2018-08-18T19:22:10.180Z,21.70
2018-08-18T19:24:41.049Z,21.63
2018-08-18T19:27:12.244Z,21.67
2018-08-18T19:29:43.071Z,21.73
2018-08-18T19:32:13.847Z,21.78
2018-08-18T19:34:44.667Z,21.71
2018-08-18T19:37:17.988Z,21.63
2018-08-18T19:39:49.688Z,21.56
2018-08-18T19:42:20.491Z,21.39
2018-08-18T19:44:52.549Z,21.36
2018-08-18T19:47:31.266Z,21.42
2018-08-18T19:50:02.094Z,21.48
2018-08-18T19:52:32.868Z,21.40
2018-08-18T19:55:03.837Z,21.66
2018-08-18T19:57:36.966Z,21.66
2018-08-18T20:00:18.472Z,21.46
2018-08-18T20:03:00.885Z,21.26
2018-08-18T20:05:36.749Z,21.07
2018-08-18T20:08:13.600Z,20.92
2018-08-18T20:10:54.540Z,20.78
2018-08-18T20:13:31.563Z,20.63
2018-08-18T20:16:07.744Z,20.48
2018-08-18T20:18:46.178Z,20.70
2018-08-18T20:21:22.134Z,20.71
2018-08-18T20:23:57.901Z,20.62
2018-08-18T20:26:33.822Z,20.81
2018-08-18T20:29:09.652Z,20.73
2018-08-18T20:32:01.539Z,20.39
2018-08-18T20:34:37.430Z,20.08
2018-08-18T20:37:13.553Z,20.17
2018-08-18T20:39:49.331Z,20.22
2018-08-18T20:42:30.853Z,20.26
2018-08-18T20:45:06.936Z,20.20
2018-08-18T20:47:44.556Z,20.07
2018-08-18T20:50:20.456Z,20.02
2018-08-18T20:53:00.446Z,20.03
2018-08-18T20:55:36.291Z,19.83
2018-08-18T20:58:12.225Z,19.79
2018-08-18T21:00:47.994Z,19.79
2018-08-18T21:03:57.203Z,19.91
2018-08-18T21:06:33.071Z,19.89
2018-08-18T21:09:24.170Z,19.71
2018-08-18T21:11:59.941Z,19.83
2018-08-18T21:14:35.828Z,19.75
2018-08-18T21:17:11.779Z,19.59
2018-08-18T21:19:47.619Z,19.47
2018-08-18T21:22:27.552Z,19.43
2018-08-18T21:25:03.274Z,19.53
2018-08-18T21:27:39.892Z,19.62
2018-08-18T21:30:18.072Z,19.58
2018-08-18T21:32:53.817Z,19.61
2018-08-18T21:35:29.764Z,19.54
2018-08-18T21:38:05.946Z,19.59
2018-08-18T21:40:44.377Z,19.54
2018-08-18T21:43:31.166Z,19.55
2018-08-18T21:46:09.202Z,19.12
2018-08-18T21:48:51.314Z,18.76
2018-08-18T21:51:27.921Z,18.52
2018-08-18T21:54:03.965Z,18.41
2018-08-18T21:59:47.400Z,18.28
2018-08-18T22:02:35.530Z,18.38
2018-08-18T22:05:13.859Z,18.47
2018-08-18T22:07:52.577Z,18.59
2018-08-18T22:10:28.733Z,18.68
2018-08-18T22:16:02.772Z,18.71
2018-08-18T22:18:38.708Z,18.75
2018-08-18T22:21:17.329Z,18.78
2018-08-18T22:23:53.274Z,18.73
2018-08-18T22:26:29.639Z,18.51
2018-08-18T22:29:06.665Z,18.57
2018-08-18T22:31:43.953Z,18.58
2018-08-18T22:34:19.808Z,18.74
2018-08-18T22:37:01.482Z,18.82
2018-08-18T22:39:37.672Z,18.82
2018-08-18T22:42:14.602Z,18.68
2018-08-18T22:44:50.502Z,18.26
2018-08-18T22:47:26.540Z,18.26
2018-08-18T22:50:02.467Z,17.97
2018-08-18T22:52:42.510Z,17.71
2018-08-18T22:55:19.133Z,17.61
2018-08-18T22:58:02.277Z,17.56
2018-08-18T23:00:42.062Z,17.91
2018-08-18T23:03:17.818Z,18.14
2018-08-18T23:05:53.879Z,18.28
2018-08-18T23:08:29.512Z,18.37
2018-08-18T23:11:05.447Z,18.20
2018-08-18T23:13:41.241Z,18.28
2018-08-18T23:16:17.291Z,18.20
2018-08-18T23:18:53.110Z,17.85
2018-08-18T23:21:29.846Z,17.60
2018-08-18T23:24:19.385Z,17.53
2018-08-18T23:26:55.082Z,17.73
2018-08-18T23:29:29.995Z,17.43
2018-08-18T23:32:27.009Z,17.24
2018-08-18T23:35:02.742Z,17.24
2018-08-18T23:37:38.525Z,17.41
2018-08-18T23:40:14.410Z,17.23
2018-08-18T23:42:50.640Z,17.37
2018-08-18T23:45:36.543Z,17.30
2018-08-18T23:48:13.661Z,17.09
2018-08-18T23:50:49.389Z,17.10
2018-08-18T23:53:25.281Z,17.29
2018-08-18T23:56:01.187Z,17.49
2018-08-18T23:58:38.729Z,17.32
